createdAt,value
2023-06-04T00:00:24.631Z,2.43
2023-06-04T00:02:46.993Z,2.07
2023-06-04T00:05:09.705Z,2.50
2023-06-04T00:07:32.087Z,1.90
2023-06-04T00:09:54.743Z,1.90
2023-06-04T00:12:18.124Z,2.23
2023-06-04T00:14:40.963Z,2.33
2023-06-04T00:17:03.405Z,1.90
2023-06-04T00:19:25.753Z,1.97
2023-06-04T00:21:48.176Z,2.20
2023-06-04T00:24:12.350Z,2.10
2023-06-04T00:26:38.773Z,2.17
2023-06-04T00:29:02.174Z,2.00
2023-06-04T00:31:24.828Z,2.13
2023-06-04T00:33:47.201Z,2.10
2023-06-04T00:36:09.877Z,2.10
2023-06-04T00:38:32.214Z,1.80
2023-06-04T00:40:54.811Z,2.00
2023-06-04T00:43:17.257Z,2.17
2023-06-04T00:45:39.956Z,1.80
2023-06-04T00:48:02.475Z,2.27
2023-06-04T00:50:25.901Z,2.27
2023-06-04T00:52:49.005Z,2.33
2023-06-04T00:55:11.946Z,1.97
2023-06-04T00:57:34.289Z,2.03
2023-06-04T00:59:56.664Z,2.10
2023-06-04T01:02:21.192Z,1.93
2023-06-04T01:04:52.935Z,2.00
2023-06-04T01:07:16.125Z,2.00
2023-06-04T01:09:39.247Z,1.87
2023-06-04T01:12:03.057Z,1.67
2023-06-04T01:14:26.756Z,2.20
2023-06-04T01:16:51.807Z,1.83
2023-06-04T01:19:33.294Z,1.80
2023-06-04T01:21:57.957Z,2.10
2023-06-04T01:24:23.679Z,1.80
2023-06-04T01:26:46.102Z,1.73
2023-06-04T01:29:08.663Z,1.70
2023-06-04T01:31:34.122Z,1.70
2023-06-04T01:33:58.933Z,1.90
2023-06-04T01:36:21.603Z,1.80
2023-06-04T01:38:43.921Z,1.93
2023-06-04T01:41:06.513Z,1.90
2023-06-04T01:43:30.009Z,1.67
2023-06-04T01:45:52.385Z,1.70
2023-06-04T01:48:14.735Z,2.00
2023-06-04T01:50:37.040Z,2.07
2023-06-04T01:52:59.625Z,2.03
2023-06-04T01:55:22.464Z,1.70
2023-06-04T01:57:45.482Z,2.20
2023-06-04T02:00:09.306Z,1.97
2023-06-04T02:02:39.373Z,2.20
2023-06-04T02:05:01.715Z,1.83
2023-06-04T02:07:24.055Z,1.87
2023-06-04T02:09:46.370Z,1.90
2023-06-04T02:12:08.970Z,1.97
2023-06-04T02:14:34.967Z,2.20
2023-06-04T02:16:58.940Z,1.77
2023-06-04T02:19:21.724Z,1.73
2023-06-04T02:21:44.032Z,1.70
2023-06-04T02:24:06.798Z,1.57
2023-06-04T02:26:29.304Z,1.60
2023-06-04T02:28:51.822Z,2.10
2023-06-04T02:31:14.147Z,1.77
2023-06-04T02:33:36.492Z,2.33
2023-06-04T02:35:58.886Z,1.70
2023-06-04T02:38:21.248Z,2.13
2023-06-04T02:40:45.155Z,1.80
2023-06-04T02:43:07.874Z,1.57
2023-06-04T02:45:30.554Z,1.97
2023-06-04T02:47:53.108Z,1.90
2023-06-04T02:50:18.959Z,1.70
2023-06-04T02:52:43.358Z,1.80
2023-06-04T02:55:08.019Z,1.87
2023-06-04T02:57:31.512Z,1.73
2023-06-04T02:59:53.915Z,1.70
2023-06-04T03:02:17.151Z,1.60
2023-06-04T03:04:39.428Z,1.87
2023-06-04T03:07:05.241Z,1.77
2023-06-04T03:09:27.747Z,1.73
2023-06-04T03:11:50.025Z,1.90
2023-06-04T03:14:12.315Z,1.90
2023-06-04T03:16:34.695Z,1.90
2023-06-04T03:18:58.043Z,2.00
2023-06-04T03:21:20.718Z,2.00
2023-06-04T03:23:43.703Z,1.90
2023-06-04T03:26:07.126Z,1.83
2023-06-04T03:28:29.499Z,2.00
2023-06-04T03:30:52.060Z,1.70
2023-06-04T03:33:16.490Z,1.80
2023-06-04T03:35:39.149Z,2.20
2023-06-04T03:38:02.159Z,1.87
2023-06-04T03:40:25.501Z,2.00
2023-06-04T03:42:48.131Z,2.03
2023-06-04T03:45:12.618Z,2.00
2023-06-04T03:47:35.171Z,1.80
2023-06-04T03:49:58.699Z,1.87
2023-06-04T03:52:21.200Z,2.17
2023-06-04T03:54:43.673Z,1.60
2023-06-04T03:57:06.382Z,1.90
2023-06-04T03:59:28.802Z,2.00
2023-06-04T04:01:51.106Z,1.60
2023-06-04T04:04:13.724Z,2.20
2023-06-04T04:06:36.590Z,1.80
2023-06-04T04:08:59.384Z,1.90
2023-06-04T04:11:22.892Z,1.70
2023-06-04T04:13:47.574Z,2.10
2023-06-04T04:16:11.524Z,1.93
2023-06-04T04:18:34.967Z,1.67
2023-06-04T04:21:07.565Z,1.63
2023-06-04T04:23:55.892Z,1.70
2023-06-04T04:26:28.632Z,1.30
2023-06-04T04:28:59.214Z,1.50
2023-06-04T04:31:24.692Z,1.20
2023-06-04T04:35:50.797Z,1.05
2023-06-04T04:40:54.907Z,1.08
2023-06-04T04:43:33.686Z,1.17
2023-06-04T04:46:02.880Z,1.23
2023-06-04T04:48:26.383Z,1.30
2023-06-04T04:50:48.932Z,1.40
2023-06-04T04:53:11.209Z,1.00
2023-06-04T04:55:34.806Z,0.95
2023-06-04T04:57:57.232Z,1.10
2023-06-04T05:00:21.505Z,1.35
2023-06-04T05:02:47.662Z,1.20
2023-06-04T05:05:11.836Z,1.10
2023-06-04T05:07:34.179Z,1.15
2023-06-04T05:09:56.995Z,1.40
2023-06-04T05:12:19.722Z,1.25
2023-06-04T05:14:42.823Z,0.90
2023-06-04T05:17:11.700Z,1.00
2023-06-04T05:19:37.548Z,1.27
2023-06-04T05:22:01.944Z,1.17
2023-06-04T05:24:24.830Z,0.70
2023-06-04T05:26:49.402Z,0.95
2023-06-04T05:29:15.351Z,0.98
2023-06-04T05:31:41.067Z,1.10
2023-06-04T05:34:05.659Z,1.20
2023-06-04T05:36:31.127Z,0.90
2023-06-04T05:39:00.862Z,1.00
2023-06-04T05:41:30.273Z,1.10
2023-06-04T05:43:53.804Z,1.15
2023-06-04T05:46:16.421Z,0.90
2023-06-04T05:48:41.282Z,1.00
2023-06-04T05:51:04.044Z,1.10
2023-06-04T05:53:26.792Z,1.45
2023-06-04T05:55:49.542Z,0.95
2023-06-04T05:58:14.806Z,0.98
2023-06-04T06:00:37.351Z,0.85
2023-06-04T06:03:06.285Z,0.93
2023-06-04T06:05:39.448Z,1.10
2023-06-04T06:08:02.913Z,1.02
2023-06-04T06:10:25.255Z,0.82
2023-06-04T06:12:47.662Z,0.82
2023-06-04T06:15:13.581Z,1.00
2023-06-04T06:17:37.435Z,1.00
2023-06-04T06:20:00.165Z,1.05
2023-06-04T06:22:22.711Z,1.10
2023-06-04T06:24:48.722Z,1.00
2023-06-04T06:27:14.617Z,0.93
2023-06-04T06:29:37.331Z,0.98
2023-06-04T06:32:00.374Z,0.65
2023-06-04T06:34:23.106Z,1.40
2023-06-04T06:36:45.352Z,0.90
2023-06-04T06:39:08.050Z,1.00
2023-06-04T06:41:32.203Z,1.10
2023-06-04T06:43:54.944Z,1.10
2023-06-04T06:46:17.384Z,1.00
2023-06-04T06:48:48.744Z,1.33
2023-06-04T06:51:11.293Z,0.95
2023-06-04T06:53:33.627Z,1.02
2023-06-04T06:56:01.391Z,0.95
2023-06-04T06:58:24.456Z,1.00
2023-06-04T07:00:50.198Z,0.90
2023-06-04T07:03:12.936Z,0.93
2023-06-04T07:05:35.702Z,1.10
2023-06-04T07:08:02.205Z,0.80
2023-06-04T07:10:28.479Z,1.10
2023-06-04T07:12:51.050Z,1.20
2023-06-04T07:15:13.890Z,0.98
2023-06-04T07:17:36.301Z,1.05
2023-06-04T07:19:58.610Z,1.10
2023-06-04T07:22:21.077Z,0.80
2023-06-04T07:24:43.951Z,1.15
2023-06-04T07:27:12.784Z,1.23
2023-06-04T07:29:35.205Z,0.95
2023-06-04T07:31:57.464Z,1.00
2023-06-04T07:34:19.844Z,1.42
2023-06-04T07:36:42.180Z,1.10
2023-06-04T07:39:07.639Z,0.73
2023-06-04T07:41:29.931Z,0.90
2023-06-04T07:43:52.166Z,0.80
2023-06-04T07:46:14.729Z,1.08
2023-06-04T07:48:37.126Z,1.13
2023-06-04T07:50:59.882Z,1.20
2023-06-04T07:53:22.566Z,0.80
2023-06-04T07:55:45.160Z,0.73
2023-06-04T07:58:07.522Z,1.23
2023-06-04T08:00:30.452Z,1.00
2023-06-04T08:02:53.877Z,1.30
2023-06-04T08:05:16.567Z,1.10
2023-06-04T08:07:39.202Z,1.00
2023-06-04T08:10:01.694Z,1.00
2023-06-04T08:12:24.397Z,1.05
2023-06-04T08:14:46.918Z,0.90
2023-06-04T08:17:09.394Z,0.80
2023-06-04T08:19:31.740Z,0.95
2023-06-04T08:21:54.173Z,1.23
2023-06-04T08:24:16.469Z,0.80
2023-06-04T08:26:38.904Z,0.95
2023-06-04T08:29:08.304Z,1.00
2023-06-04T08:31:30.893Z,1.10
2023-06-04T08:33:53.367Z,0.88
2023-06-04T08:36:17.309Z,0.82
2023-06-04T08:38:41.693Z,1.00
2023-06-04T08:41:24.225Z,1.27
2023-06-04T08:43:46.696Z,0.98
2023-06-04T08:46:10.184Z,0.80
2023-06-04T08:48:32.613Z,0.95
2023-06-04T08:50:56.293Z,1.13
2023-06-04T08:53:19.436Z,0.90
2023-06-04T08:55:42.501Z,1.10
2023-06-04T08:58:09.421Z,1.27
2023-06-04T09:00:32.028Z,1.20
2023-06-04T09:02:57.832Z,1.10
2023-06-04T09:05:26.989Z,1.08
2023-06-04T09:07:53.396Z,1.08
2023-06-04T09:10:20.520Z,1.35
2023-06-04T09:12:48.736Z,0.90
2023-06-04T09:15:23.416Z,1.08
2023-06-04T09:17:46.027Z,1.17
2023-06-04T09:20:09.839Z,1.20
2023-06-04T09:22:36.001Z,0.88
2023-06-04T09:24:58.382Z,1.13
2023-06-04T09:27:23.484Z,1.00
2023-06-04T09:29:53.169Z,1.13
2023-06-04T09:32:15.568Z,1.20
2023-06-04T09:34:45.103Z,1.92
2023-06-04T09:37:17.134Z,1.20
2023-06-04T09:39:39.620Z,1.02
2023-06-04T09:42:08.346Z,1.13
2023-06-04T09:44:31.481Z,1.20
2023-06-04T09:46:55.727Z,1.30
2023-06-04T09:49:18.051Z,0.80
2023-06-04T09:51:48.458Z,1.27
2023-06-04T09:54:11.277Z,1.10
2023-06-04T09:56:41.241Z,1.05
2023-06-04T09:59:04.145Z,1.50
2023-06-04T10:01:27.827Z,1.50
2023-06-04T10:03:53.000Z,1.38
2023-06-04T10:06:19.695Z,0.98
2023-06-04T10:08:43.734Z,1.25
2023-06-04T10:11:07.439Z,1.15
2023-06-04T10:13:31.971Z,1.15
2023-06-04T10:15:54.700Z,1.20
2023-06-04T10:18:17.589Z,1.20
2023-06-04T10:20:40.800Z,1.15
2023-06-04T10:23:05.572Z,1.40
2023-06-04T10:25:29.770Z,2.00
2023-06-04T10:27:56.445Z,3.47
2023-06-04T10:30:19.082Z,1.25
2023-06-04T10:32:42.528Z,1.90
2023-06-04T10:35:05.788Z,1.00
2023-06-04T10:37:30.626Z,1.58
2023-06-04T10:39:54.082Z,1.35
2023-06-04T10:42:18.106Z,1.25
2023-06-04T10:44:47.950Z,1.02
2023-06-04T10:47:19.809Z,1.55
2023-06-04T10:49:42.526Z,1.10
2023-06-04T10:52:11.939Z,1.05
2023-06-04T10:54:34.751Z,1.20
2023-06-04T10:56:57.404Z,1.77
2023-06-04T10:59:20.136Z,1.70
2023-06-04T11:01:43.048Z,1.20
2023-06-04T11:04:05.661Z,1.20
2023-06-04T11:06:28.838Z,1.25
2023-06-04T11:08:51.324Z,1.65
2023-06-04T11:11:17.362Z,1.10
2023-06-04T11:13:39.771Z,1.10
2023-06-04T11:16:02.252Z,1.38
2023-06-04T11:18:27.951Z,1.23
2023-06-04T11:20:51.436Z,1.88
2023-06-04T11:23:17.120Z,1.30
2023-06-04T11:25:39.422Z,1.30
2023-06-04T11:28:02.780Z,1.27
2023-06-04T11:30:25.545Z,1.30
2023-06-04T11:32:48.202Z,1.38
2023-06-04T11:35:12.479Z,1.63
2023-06-04T11:37:35.151Z,1.30
2023-06-04T11:39:57.716Z,1.38
2023-06-04T11:42:20.385Z,1.00
2023-06-04T11:44:46.285Z,1.33
2023-06-04T11:47:10.128Z,1.42
2023-06-04T11:49:32.561Z,1.67
2023-06-04T11:51:55.714Z,1.25
2023-06-04T11:54:18.800Z,1.08
2023-06-04T11:56:41.234Z,1.60
2023-06-04T11:59:03.581Z,1.15
2023-06-04T12:01:29.934Z,1.58
2023-06-04T12:03:52.200Z,1.30
2023-06-04T12:06:17.042Z,1.30
2023-06-04T12:08:49.704Z,1.20
2023-06-04T12:11:12.027Z,1.20
2023-06-04T12:13:39.136Z,1.33
2023-06-04T12:16:01.731Z,1.50
2023-06-04T12:18:27.235Z,1.33
2023-06-04T12:20:50.865Z,1.80
2023-06-04T12:23:21.884Z,1.17
2023-06-04T12:25:44.480Z,1.10
2023-06-04T12:28:07.275Z,0.98
2023-06-04T12:30:42.481Z,1.30
2023-06-04T12:33:04.830Z,1.40
2023-06-04T12:35:27.241Z,0.95
2023-06-04T12:37:49.511Z,1.40
2023-06-04T12:40:12.740Z,1.30
2023-06-04T12:42:35.135Z,1.55
2023-06-04T12:44:57.495Z,1.20
2023-06-04T12:47:19.879Z,1.60
2023-06-04T12:49:42.178Z,1.35
2023-06-04T12:52:04.779Z,1.20
2023-06-04T12:54:28.278Z,1.35
2023-06-04T12:56:51.583Z,1.70
2023-06-04T12:59:14.079Z,1.20
2023-06-04T13:01:38.474Z,1.48
2023-06-04T13:04:01.094Z,1.30
2023-06-04T13:06:23.469Z,1.50
2023-06-04T13:08:46.170Z,1.70
2023-06-04T13:11:09.298Z,1.70
2023-06-04T13:13:31.856Z,1.48
2023-06-04T13:15:54.155Z,1.90
2023-06-04T13:18:16.401Z,1.45
2023-06-04T13:20:39.088Z,1.55
2023-06-04T13:23:01.368Z,1.35
2023-06-04T13:25:23.809Z,1.77
2023-06-04T13:27:46.550Z,1.70
2023-06-04T13:30:09.017Z,1.35
2023-06-04T13:32:31.475Z,1.65
2023-06-04T13:34:53.903Z,1.75
2023-06-04T13:37:16.195Z,1.60
2023-06-04T13:39:38.450Z,1.60
2023-06-04T13:42:01.012Z,1.13
2023-06-04T13:44:27.492Z,1.48
2023-06-04T13:46:49.815Z,1.50
2023-06-04T13:49:12.139Z,1.45
2023-06-04T13:51:34.358Z,1.85
2023-06-04T13:53:56.742Z,1.70
2023-06-04T13:56:19.025Z,1.55
2023-06-04T13:58:41.349Z,1.52
2023-06-04T14:01:03.670Z,1.70
2023-06-04T14:03:26.283Z,1.63
2023-06-04T14:05:48.999Z,1.70
2023-06-04T14:08:13.306Z,1.08
2023-06-04T14:10:37.312Z,1.60
2023-06-04T14:12:59.595Z,1.60
2023-06-04T14:15:21.866Z,1.60
2023-06-04T14:17:44.360Z,1.80
2023-06-04T14:20:08.471Z,1.77
2023-06-04T14:22:33.482Z,2.00
2023-06-04T14:24:56.085Z,1.75
2023-06-04T14:27:18.651Z,1.85
2023-06-04T14:29:41.567Z,1.60
2023-06-04T14:32:04.480Z,1.50
2023-06-04T14:34:26.802Z,1.33
2023-06-04T14:36:49.370Z,1.80
2023-06-04T14:39:11.874Z,1.83
2023-06-04T14:41:34.541Z,1.70
2023-06-04T14:43:56.980Z,1.85
2023-06-04T14:46:19.449Z,1.60
2023-06-04T14:48:50.913Z,1.90
2023-06-04T14:51:13.297Z,1.70
2023-06-04T14:53:35.755Z,1.90
2023-06-04T14:55:58.145Z,1.90
2023-06-04T14:58:20.677Z,1.95
2023-06-04T15:00:46.531Z,2.10
2023-06-04T15:03:09.001Z,1.95
2023-06-04T15:05:31.541Z,1.70
2023-06-04T15:07:53.966Z,1.77
2023-06-04T15:10:16.372Z,1.80
2023-06-04T15:12:42.234Z,1.40
2023-06-04T15:15:08.002Z,1.83
2023-06-04T15:17:32.656Z,1.58
2023-06-04T15:19:54.989Z,1.83
2023-06-04T15:22:17.259Z,1.27
2023-06-04T15:24:39.621Z,1.70
2023-06-04T15:27:02.081Z,1.50
2023-06-04T15:29:24.415Z,1.48
2023-06-04T15:31:47.370Z,1.40
2023-06-04T15:34:09.898Z,1.40
2023-06-04T15:36:34.663Z,1.65
2023-06-04T15:38:57.307Z,1.83
2023-06-04T15:41:22.538Z,1.50
2023-06-04T15:43:45.177Z,1.40
2023-06-04T15:46:07.889Z,1.38
2023-06-04T15:48:31.559Z,1.35
2023-06-04T15:50:53.923Z,1.50
2023-06-04T15:53:16.322Z,1.65
2023-06-04T15:55:41.971Z,1.63
2023-06-04T15:58:04.492Z,1.50
2023-06-04T16:00:27.313Z,1.70
2023-06-04T16:02:49.978Z,1.77
2023-06-04T16:05:12.576Z,1.50
2023-06-04T16:07:34.932Z,1.38
2023-06-04T16:09:57.448Z,1.45
2023-06-04T16:12:19.750Z,1.83
2023-06-04T16:14:42.034Z,1.35
2023-06-04T16:17:04.689Z,1.65
2023-06-04T16:19:27.013Z,1.35
2023-06-04T16:21:49.302Z,1.35
2023-06-04T16:24:12.077Z,1.40
2023-06-04T16:26:34.589Z,1.50
2023-06-04T16:28:56.904Z,1.60
2023-06-04T16:31:19.234Z,1.70
2023-06-04T16:33:41.696Z,1.25
2023-06-04T16:36:04.034Z,1.33
2023-06-04T16:38:26.304Z,1.13
2023-06-04T16:40:48.866Z,1.30
2023-06-04T16:43:11.301Z,1.42
2023-06-04T16:45:33.533Z,1.30
2023-06-04T16:47:56.081Z,1.70
2023-06-04T16:50:19.834Z,1.60
2023-06-04T16:52:42.352Z,1.40
2023-06-04T16:55:05.855Z,1.23
2023-06-04T16:57:28.228Z,1.58
2023-06-04T16:59:50.912Z,1.55
2023-06-04T17:02:13.677Z,1.23
2023-06-04T17:04:36.090Z,1.63
2023-06-04T17:06:58.541Z,1.40
2023-06-04T17:09:21.067Z,1.30
2023-06-04T17:11:44.913Z,1.50
2023-06-04T17:14:07.699Z,1.50
2023-06-04T17:16:30.156Z,1.33
2023-06-04T17:18:52.519Z,1.20
2023-06-04T17:21:18.047Z,1.40
2023-06-04T17:23:41.153Z,1.58
2023-06-04T17:26:03.678Z,1.50
2023-06-04T17:28:27.172Z,0.98
2023-06-04T17:30:49.756Z,1.35
2023-06-04T17:33:12.500Z,1.30
2023-06-04T17:35:35.027Z,1.35
2023-06-04T17:37:57.342Z,1.10
2023-06-04T17:40:19.790Z,1.45
2023-06-04T17:42:47.437Z,1.45
2023-06-04T17:45:11.754Z,1.40
2023-06-04T17:47:34.058Z,1.23
2023-06-04T17:50:03.929Z,1.70
2023-06-04T17:52:29.575Z,1.10
2023-06-04T17:54:52.030Z,0.95
2023-06-04T17:57:14.512Z,1.33
2023-06-04T17:59:36.823Z,0.98
2023-06-04T18:02:00.148Z,1.40
2023-06-04T18:04:22.825Z,1.65
2023-06-04T18:06:45.345Z,1.40
2023-06-04T18:09:07.960Z,1.30
2023-06-04T18:11:39.407Z,1.17
2023-06-04T18:14:04.130Z,1.30
2023-06-04T18:16:26.532Z,1.20
2023-06-04T18:18:51.011Z,1.40
2023-06-04T18:21:13.552Z,1.30
2023-06-04T18:23:35.875Z,1.02
2023-06-04T18:26:00.322Z,1.45
2023-06-04T18:28:22.801Z,1.63
2023-06-04T18:30:48.064Z,1.20
2023-06-04T18:33:10.833Z,1.10
2023-06-04T18:35:33.673Z,1.30
2023-06-04T18:37:56.194Z,1.23
2023-06-04T18:40:18.566Z,1.20
2023-06-04T18:42:41.175Z,1.52
2023-06-04T18:45:05.371Z,1.30
2023-06-04T18:47:27.864Z,1.20
2023-06-04T18:49:50.666Z,1.20
2023-06-04T18:52:13.036Z,1.20
2023-06-04T18:54:35.401Z,1.20
2023-06-04T18:56:57.656Z,1.35
2023-06-04T18:59:20.100Z,0.90
2023-06-04T19:01:42.558Z,1.40
2023-06-04T19:04:09.299Z,1.45
2023-06-04T19:36:25.008Z,1.45
2023-06-04T19:43:12.384Z,1.48
2023-06-04T19:50:27.399Z,1.40
2023-06-04T20:47:26.269Z,1.73
2023-06-04T21:14:34.978Z,2.08
2023-06-04T21:17:25.646Z,2.15
2023-06-04T21:19:48.170Z,2.20
2023-06-04T21:22:22.728Z,1.90
2023-06-04T21:25:02.304Z,2.15
2023-06-04T21:27:24.716Z,1.80
2023-06-04T21:29:56.409Z,1.93
2023-06-04T21:32:18.883Z,2.17
2023-06-04T21:34:48.266Z,1.90
2023-06-04T21:37:10.663Z,1.73
2023-06-04T21:39:33.009Z,1.63
2023-06-04T21:41:55.343Z,2.13
2023-06-04T21:44:17.692Z,2.10
2023-06-04T21:46:43.564Z,2.00
2023-06-04T21:49:07.867Z,2.13
2023-06-04T21:51:30.678Z,2.20
2023-06-04T21:53:52.992Z,2.23
2023-06-04T21:56:15.294Z,2.03
2023-06-04T21:58:37.667Z,2.27
2023-06-04T22:01:00.520Z,2.10
2023-06-04T22:03:23.273Z,2.40
2023-06-04T22:05:50.169Z,2.10
2023-06-04T22:08:14.261Z,2.00
2023-06-04T22:10:36.920Z,2.40
2023-06-04T22:12:59.265Z,2.47
2023-06-04T22:15:21.637Z,2.37
2023-06-04T22:17:44.069Z,1.87
2023-06-04T22:20:09.622Z,2.07
2023-06-04T22:22:31.985Z,2.43
2023-06-04T22:24:54.487Z,2.23
2023-06-04T22:27:17.092Z,2.20
2023-06-04T22:29:39.758Z,2.17
2023-06-04T22:32:02.088Z,2.33
2023-06-04T22:34:24.490Z,2.23
2023-06-04T22:36:47.257Z,2.13
2023-06-04T22:39:09.697Z,2.17
2023-06-04T22:41:32.008Z,2.20
2023-06-04T22:43:54.292Z,2.40
2023-06-04T22:46:16.734Z,2.20
2023-06-04T22:48:39.110Z,2.47
2023-06-04T22:51:02.991Z,2.30
2023-06-04T22:53:26.686Z,2.20
2023-06-04T22:55:49.225Z,2.30
2023-06-04T22:58:11.564Z,2.30
2023-06-04T23:00:43.423Z,2.10
2023-06-04T23:03:05.882Z,2.00
2023-06-04T23:05:29.549Z,2.43
2023-06-04T23:07:52.060Z,2.30
2023-06-04T23:10:14.364Z,2.40
2023-06-04T23:12:36.725Z,2.47
2023-06-04T23:14:58.978Z,2.50
2023-06-04T23:17:21.392Z,2.47
2023-06-04T23:19:46.749Z,2.67
2023-06-04T23:22:09.205Z,2.17
2023-06-04T23:24:31.527Z,2.60
2023-06-04T23:26:53.813Z,2.57
2023-06-04T23:29:16.252Z,2.60
2023-06-04T23:31:38.838Z,2.33
2023-06-04T23:34:01.303Z,2.50
2023-06-04T23:36:23.600Z,2.53
2023-06-04T23:38:48.052Z,2.40
2023-06-04T23:41:10.604Z,2.53
2023-06-04T23:43:32.970Z,2.70
2023-06-04T23:45:55.431Z,2.40
2023-06-04T23:48:17.903Z,2.27
2023-06-04T23:50:40.142Z,2.80
2023-06-04T23:53:02.554Z,2.57
2023-06-04T23:55:24.797Z,2.27
2023-06-04T23:57:47.055Z,2.67
